Milwaukee, Wisconsin
Traffic Map
Current Weather Conditions
Milwaukee, Wisconsin
Few Clouds
Few Clouds

Feels Like: 3°
Wind Chill: Ceiling: Unl
Heat Index: Visibility: 10mi
Dew Point: Wind: 5mph
Humidity: 83% Direction: 290° (WNW)
Pressure: 30.28in Gusts: 0mph
Raw Report DataKMKE 220552Z 29004KT 10SM FEW021 04/02 A3028 RMK AO2 SLP257 T00440017 10078 20044 400940044 55000
Traffic Incident Summary
Active as of:
Severity:
Category:
InformationThere was an issue retrieving the traffic information for this location. Please try a different location or try again shortly.
Advertisements
Track Severe Weather on mobile